createdAt,value
2023-03-04T00:01:53.287Z,-1.73
2023-03-04T00:05:55.329Z,-1.71
2023-03-04T00:09:57.397Z,-1.72
2023-03-04T00:13:59.500Z,-1.76
2023-03-04T00:18:01.507Z,-1.79
2023-03-04T00:22:04.569Z,-1.81
2023-03-04T00:26:09.456Z,-1.81
2023-03-04T00:30:12.142Z,-1.80
2023-03-04T00:34:14.194Z,-1.80
2023-03-04T00:38:16.233Z,-1.78
2023-03-04T00:42:18.301Z,-1.68
2023-03-04T00:46:20.402Z,-1.59
2023-03-04T00:50:22.460Z,-1.50
2023-03-04T00:54:24.529Z,-1.37
2023-03-04T00:58:26.526Z,-1.26
2023-03-04T01:02:28.667Z,-1.13
2023-03-04T01:06:30.762Z,-0.99
2023-03-04T01:10:33.128Z,-0.86
2023-03-04T01:14:35.312Z,-0.76
2023-03-04T01:18:37.367Z,-0.63
2023-03-04T01:22:39.470Z,-0.51
2023-03-04T01:26:41.689Z,-0.46
2023-03-04T01:30:43.738Z,-0.42
2023-03-04T01:34:45.828Z,-0.33
2023-03-04T01:38:47.896Z,-0.25
2023-03-04T01:42:49.959Z,-0.16
2023-03-04T01:46:55.607Z,-0.07
2023-03-04T01:51:03.130Z,-0.08
2023-03-04T01:55:18.650Z,-0.07
2023-03-04T01:59:26.143Z,-0.09
2023-03-04T02:03:28.321Z,-0.06
2023-03-04T02:07:30.347Z,-0.05
2023-03-04T02:11:33.338Z,-0.04
2023-03-04T02:15:35.477Z,0.01
2023-03-04T02:19:50.908Z,0.07
2023-03-04T02:24:15.412Z,0.10
2023-03-04T02:28:17.581Z,0.09
2023-03-04T02:32:20.158Z,0.13
2023-03-04T02:36:23.275Z,0.15
2023-03-04T02:40:30.735Z,0.14
2023-03-04T02:44:37.361Z,0.16
2023-03-04T02:48:39.815Z,0.17
2023-03-04T02:52:41.932Z,0.19
2023-03-04T02:56:52.862Z,0.30
2023-03-04T03:00:57.100Z,0.18
2023-03-04T03:05:00.769Z,0.15
2023-03-04T03:09:03.871Z,0.12
2023-03-04T03:13:06.037Z,0.13
2023-03-04T03:17:08.530Z,0.14
2023-03-04T03:21:10.602Z,0.13
2023-03-04T03:25:15.543Z,0.15
2023-03-04T03:29:17.582Z,0.17
2023-03-04T03:33:19.628Z,0.18
2023-03-04T03:37:21.759Z,0.18
2023-03-04T03:41:23.774Z,0.19
2023-03-04T03:45:25.875Z,0.18
2023-03-04T03:49:28.167Z,0.15
2023-03-04T03:53:30.161Z,0.13
2023-03-04T03:57:32.144Z,0.13
2023-03-04T04:01:34.215Z,0.18
2023-03-04T04:05:36.253Z,0.20
2023-03-04T04:09:38.252Z,0.20
2023-03-04T04:13:40.265Z,0.21
2023-03-04T04:17:42.261Z,0.24
2023-03-04T04:21:44.409Z,0.24
2023-03-04T04:25:46.515Z,0.25
2023-03-04T04:29:48.492Z,0.25
2023-03-04T04:33:50.506Z,0.22
2023-03-04T04:37:52.485Z,0.22
2023-03-04T04:41:54.503Z,0.23
2023-03-04T04:46:00.298Z,0.28
2023-03-04T04:50:03.218Z,0.32
2023-03-04T04:54:06.277Z,0.33
2023-03-04T04:58:08.228Z,0.32
2023-03-04T05:02:10.253Z,0.35
2023-03-04T05:06:13.116Z,0.30
2023-03-04T05:10:15.595Z,0.29
2023-03-04T05:14:17.716Z,0.31
2023-03-04T05:18:21.540Z,0.35
2023-03-04T05:22:23.556Z,0.41
2023-03-04T05:26:25.561Z,0.42
2023-03-04T05:30:28.081Z,0.41
2023-03-04T05:34:30.075Z,0.43
2023-03-04T05:38:33.083Z,0.46
2023-03-04T05:42:35.077Z,0.42
2023-03-04T05:46:37.118Z,0.46
2023-03-04T05:50:39.226Z,0.69
2023-03-04T05:54:41.222Z,0.75
2023-03-04T05:58:44.404Z,0.73
2023-03-04T06:02:46.763Z,0.69
2023-03-04T06:06:48.816Z,0.66
2023-03-04T06:10:53.740Z,0.67
2023-03-04T06:14:55.736Z,0.71
2023-03-04T06:18:57.923Z,0.72
2023-03-04T06:22:59.939Z,0.71
2023-03-04T06:27:02.093Z,0.73
2023-03-04T06:31:04.276Z,0.72
2023-03-04T06:35:06.779Z,0.73
2023-03-04T06:39:09.417Z,0.72
2023-03-04T06:43:11.424Z,0.81
2023-03-04T06:47:13.447Z,0.87
2023-03-04T06:51:16.121Z,0.97
2023-03-04T06:55:18.190Z,1.11
2023-03-04T06:59:20.194Z,1.12
2023-03-04T07:03:22.419Z,1.12
2023-03-04T07:07:26.314Z,1.17
2023-03-04T07:11:28.302Z,1.23
2023-03-04T07:15:30.774Z,1.32
2023-03-04T07:19:32.838Z,1.45
2023-03-04T07:23:35.472Z,1.44
2023-03-04T07:27:38.680Z,1.42
2023-03-04T07:31:40.776Z,1.45
2023-03-04T07:35:42.897Z,1.43
2023-03-04T07:39:44.975Z,1.46
2023-03-04T07:43:47.521Z,1.51
2023-03-04T07:47:49.790Z,2.05
2023-03-04T07:51:51.748Z,2.69
2023-03-04T07:55:53.738Z,2.46
2023-03-04T07:59:56.208Z,2.31
2023-03-04T08:03:58.765Z,2.29
2023-03-04T08:08:00.837Z,2.23
2023-03-04T08:12:02.939Z,2.22
2023-03-04T08:16:05.518Z,2.23
2023-03-04T08:20:07.980Z,2.27
2023-03-04T08:24:11.564Z,2.32
2023-03-04T08:28:14.354Z,2.36
2023-03-04T08:32:16.540Z,2.39
2023-03-04T08:36:18.972Z,2.40
2023-03-04T08:40:21.164Z,2.47
2023-03-04T08:44:25.729Z,2.55
2023-03-04T08:48:28.745Z,2.55
2023-03-04T08:52:31.030Z,2.55
2023-03-04T08:56:33.103Z,2.60
2023-03-04T09:00:38.053Z,2.62
2023-03-04T09:04:40.163Z,2.68
2023-03-04T09:08:42.861Z,2.87
2023-03-04T09:12:44.931Z,2.98
2023-03-04T09:16:46.941Z,2.98
2023-03-04T09:20:49.451Z,3.01
2023-03-04T09:24:51.563Z,3.03
2023-03-04T09:28:57.082Z,3.02
2023-03-04T09:32:59.043Z,3.10
2023-03-04T09:37:01.173Z,3.28
2023-03-04T09:41:07.069Z,3.38
2023-03-04T09:45:16.156Z,3.41
2023-03-04T09:49:20.748Z,3.53
2023-03-04T09:53:29.413Z,3.61
2023-03-04T09:58:02.944Z,3.70
2023-03-04T10:02:20.893Z,3.83
2023-03-04T10:06:23.244Z,3.86
2023-03-04T10:10:31.368Z,3.86
2023-03-04T10:14:51.206Z,3.92
2023-03-04T10:18:55.930Z,3.90
2023-03-04T10:23:10.895Z,3.75
2023-03-04T10:27:18.136Z,3.76
2023-03-04T10:31:22.876Z,3.87
2023-03-04T10:35:32.059Z,3.91
2023-03-04T10:39:39.929Z,3.95
2023-03-04T10:43:45.228Z,4.02
2023-03-04T10:47:54.361Z,4.00
2023-03-04T10:52:18.838Z,3.92
2023-03-04T10:56:36.306Z,3.98
2023-03-04T11:00:38.659Z,4.05
2023-03-04T11:04:40.850Z,4.18
2023-03-04T11:08:43.316Z,4.31
2023-03-04T11:13:02.878Z,4.55
2023-03-04T11:17:28.860Z,4.69
2023-03-04T11:21:40.042Z,5.29
2023-03-04T11:25:47.665Z,5.51
2023-03-04T11:30:03.504Z,5.58
2023-03-04T11:34:27.279Z,5.46
2023-03-04T11:38:36.565Z,5.34
2023-03-04T11:42:59.791Z,5.22
2023-03-04T11:47:17.890Z,5.27
2023-03-04T11:51:43.136Z,5.37
2023-03-04T11:56:04.278Z,5.39
2023-03-04T12:00:12.409Z,5.37
2023-03-04T12:04:33.674Z,5.55
2023-03-04T12:09:22.395Z,5.79
2023-03-04T12:13:42.374Z,5.84
2023-03-04T12:18:08.739Z,6.00
2023-03-04T12:22:22.329Z,6.19
2023-03-04T12:26:45.659Z,6.34
2023-03-04T12:31:09.704Z,6.38
2023-03-04T12:35:18.446Z,6.26
2023-03-04T12:39:59.923Z,6.47
2023-03-04T12:44:16.928Z,6.73
2023-03-04T12:48:39.716Z,6.83
2023-03-04T12:53:05.754Z,6.81
2023-03-04T12:57:14.563Z,6.70
2023-03-04T13:01:23.662Z,6.74
2023-03-04T13:05:43.755Z,6.71
2023-03-04T13:10:04.428Z,6.73
2023-03-04T13:14:18.130Z,6.78
2023-03-04T13:18:20.068Z,6.77
2023-03-04T13:22:45.010Z,6.89
2023-03-04T13:26:47.233Z,6.99
2023-03-04T13:30:52.304Z,7.03
2023-03-04T13:34:54.518Z,6.91
2023-03-04T13:39:16.018Z,6.81
2023-03-04T13:43:25.441Z,6.85
2023-03-04T13:47:35.107Z,6.70
2023-03-04T13:51:45.925Z,6.56
2023-03-04T13:56:05.590Z,6.56
2023-03-04T14:00:12.411Z,6.50
2023-03-04T14:04:35.619Z,6.28
2023-03-04T14:08:37.638Z,6.16
2023-03-04T14:12:54.129Z,6.02
2023-03-04T14:16:57.829Z,5.94
2023-03-04T14:21:01.335Z,5.90
2023-03-04T14:25:18.703Z,5.92
2023-03-04T14:29:26.688Z,5.90
2023-03-04T14:33:30.338Z,5.82
2023-03-04T14:37:49.680Z,5.76
2023-03-04T14:41:55.636Z,5.77
2023-03-04T14:46:01.244Z,5.65
2023-03-04T14:50:13.318Z,5.52
2023-03-04T14:54:38.137Z,5.42
2023-03-04T14:58:53.534Z,5.47
2023-03-04T15:03:01.807Z,5.49
2023-03-04T15:07:04.188Z,5.44
2023-03-04T15:11:07.551Z,5.41
2023-03-04T15:15:45.134Z,5.29
2023-03-04T15:19:58.486Z,5.22
2023-03-04T15:24:03.583Z,5.24
2023-03-04T15:28:12.451Z,5.22
2023-03-04T15:32:15.241Z,5.13
2023-03-04T15:36:20.226Z,5.09
2023-03-04T15:40:34.314Z,5.13
2023-03-04T15:44:36.305Z,5.11
2023-03-04T15:48:38.265Z,5.07
2023-03-04T15:52:40.631Z,5.03
2023-03-04T15:56:42.869Z,5.00
2023-03-04T16:00:44.857Z,4.93
2023-03-04T16:04:46.994Z,4.79
2023-03-04T16:08:50.993Z,4.72
2023-03-04T16:12:53.996Z,4.75
2023-03-04T16:16:56.020Z,4.83
2023-03-04T16:20:58.988Z,4.87
2023-03-04T16:25:01.008Z,4.85
2023-03-04T16:29:03.284Z,4.87
2023-03-04T16:33:05.357Z,4.86
2023-03-04T16:37:14.878Z,4.80
2023-03-04T16:41:20.241Z,4.60
2023-03-04T16:45:32.481Z,4.50
2023-03-04T16:49:34.548Z,4.48
2023-03-04T16:53:38.866Z,4.42
2023-03-04T16:57:40.866Z,4.46
2023-03-04T17:01:43.620Z,4.44
2023-03-04T17:05:47.644Z,4.38
2023-03-04T17:09:50.439Z,4.33
2023-03-04T17:13:52.448Z,4.29
2023-03-04T17:17:54.462Z,4.18
2023-03-04T17:21:58.020Z,4.10
2023-03-04T17:26:00.185Z,4.11
2023-03-04T17:30:03.718Z,4.07
2023-03-04T17:34:05.788Z,4.04
2023-03-04T17:38:08.311Z,4.01
2023-03-04T17:42:10.471Z,3.98
2023-03-04T17:46:14.685Z,3.94
2023-03-04T17:50:16.957Z,3.91
2023-03-04T17:54:19.422Z,3.86
2023-03-04T17:58:22.324Z,3.84
2023-03-04T18:02:24.377Z,3.83
2023-03-04T18:06:26.398Z,3.88
2023-03-04T18:10:28.405Z,3.86
2023-03-04T18:14:30.430Z,3.85
2023-03-04T18:18:32.455Z,3.85
2023-03-04T18:22:34.452Z,3.85
2023-03-04T18:26:36.558Z,3.88
2023-03-04T18:30:38.576Z,3.95
2023-03-04T18:34:40.600Z,3.98
2023-03-04T18:38:43.078Z,4.07
2023-03-04T18:42:45.217Z,4.12
2023-03-04T18:46:50.455Z,4.12
2023-03-04T18:50:53.822Z,4.05
2023-03-04T18:54:55.835Z,3.94
2023-03-04T18:58:59.254Z,3.87
2023-03-04T19:03:07.216Z,3.82
2023-03-04T19:07:09.225Z,3.81
2023-03-04T19:11:11.189Z,3.78
2023-03-04T19:15:14.189Z,3.81
2023-03-04T19:19:16.202Z,3.79
2023-03-04T19:23:18.749Z,3.77
2023-03-04T19:27:21.033Z,3.75
2023-03-04T19:31:23.137Z,3.71
2023-03-04T19:35:25.332Z,3.77
2023-03-04T19:39:27.397Z,3.80
2023-03-04T19:43:29.397Z,3.85
2023-03-04T19:47:31.455Z,3.82
2023-03-04T19:51:33.535Z,3.74
2023-03-04T19:55:38.712Z,3.69
2023-03-04T19:59:40.705Z,3.72
2023-03-04T20:03:42.727Z,3.72
2023-03-04T20:07:44.784Z,3.71
2023-03-04T20:11:57.692Z,3.69
2023-03-04T20:16:00.732Z,3.63
2023-03-04T20:20:03.579Z,3.59
2023-03-04T20:24:05.766Z,3.56
2023-03-04T20:28:07.766Z,3.53
2023-03-04T20:32:09.963Z,3.57
2023-03-04T20:36:12.051Z,3.60
2023-03-04T20:40:14.167Z,3.63
2023-03-04T20:44:16.146Z,3.65
2023-03-04T20:48:18.163Z,3.62
2023-03-04T20:52:20.131Z,3.58
2023-03-04T20:56:22.812Z,3.48
2023-03-04T21:00:25.343Z,3.41
2023-03-04T21:04:27.608Z,3.45
2023-03-04T21:08:29.696Z,3.45
2023-03-04T21:12:31.707Z,3.44
2023-03-04T21:16:33.700Z,3.43
2023-03-04T21:20:35.688Z,3.46
2023-03-04T21:24:39.398Z,3.49
2023-03-04T21:28:41.879Z,3.53
2023-03-04T21:32:43.955Z,3.60
2023-03-04T21:36:46.160Z,3.64
2023-03-04T21:40:48.281Z,3.64
2023-03-04T21:44:51.658Z,3.61
2023-03-04T21:48:53.880Z,3.61
2023-03-04T21:52:55.861Z,3.61
2023-03-04T21:56:57.991Z,3.60
2023-03-04T22:01:00.098Z,3.62
2023-03-04T22:05:02.185Z,3.59
2023-03-04T22:09:04.416Z,3.56
2023-03-04T22:13:09.378Z,3.53
2023-03-04T22:17:11.583Z,3.59
2023-03-04T22:21:15.969Z,3.59
2023-03-04T22:25:17.979Z,3.57
2023-03-04T22:29:19.984Z,3.50
2023-03-04T22:33:23.175Z,3.49
2023-03-04T22:37:25.211Z,3.46
2023-03-04T22:41:27.270Z,3.41
2023-03-04T22:45:30.723Z,3.40
2023-03-04T22:49:33.258Z,3.32
2023-03-04T22:53:35.952Z,3.32
2023-03-04T22:57:38.179Z,3.31
2023-03-04T23:01:40.634Z,3.29
2023-03-04T23:05:42.653Z,3.29
2023-03-04T23:09:44.710Z,3.23
2023-03-04T23:13:48.407Z,3.21
2023-03-04T23:17:50.883Z,3.22
2023-03-04T23:21:52.904Z,3.16
2023-03-04T23:25:54.881Z,3.10
2023-03-04T23:29:56.885Z,3.05
2023-03-04T23:34:00.074Z,3.01
2023-03-04T23:38:02.084Z,2.96
2023-03-04T23:42:04.264Z,2.99
2023-03-04T23:46:09.085Z,3.01
2023-03-04T23:50:13.665Z,3.01
2023-03-04T23:54:15.756Z,3.03
2023-03-04T23:58:17.745Z,3.00
